Arlington Heights, Massachusetts
Current Conditions -  °F | °C
As of 2:56 PM on Sunday 21 Dec 2014 (Local Time) from KBED Reporting Station
Light Snow Light Snow  
Wind Chill: -2°   Ceiling: 1600
Heat Index:   Visibility: 10mi
Dew Point: -3°   Wind: 6mph
Humidity: 75%   Direction: 350°N
Pressure: 30.3"   Gusts: NA
Location:  42.42°N, 71.17°W
Report Text: KBED 211956Z 35005KT 10SM -SN OVC016 01/M03 A3030 RMK AO2 SLP276 P0000 T00061033
Loading
Personal Weather Stations






























Interactive Weather Map New forecast layout! Learn more

10-Day Weather Forecast

Advertisements
Track Severe Weather on mobile